Airport View

Enter AWOS ICAO identifier for current METAR.

ex. KFNL

KLKV 212353Z AUTO 15005KT 10SM CLR 19/04 A3012 RMK AO2 SLP190 T01890044 10200 20139 56011

22 Sep 2019 00:11

Frequency: 135.525

Phone: 541-947-5069

Other Area AWOS: KAAT - KLMT - KSIY - KMHS

KLMT 212340Z 2200/2224 VRB03KT P6SM SKC FM221700 24003KT P6SM BKN070 FM222100 27010KT P6SM BKN040 OVC070